Time;durP1;ratioP1;P1;durP2;ratioP2;P2;SDS_P1;SDS_P2;PMS_P1;PMS_P2;Temp;Humidity;BMP_temperature;BMP_pressure;BME280_temperature;BME280_humidity;BME280_pressure;Samples;Min_cycle;Max_cycle;Signal;HPM_P1;HPM_P2
2021/03/29 05:02:41;;;;;;;13.65;7.70;;;;;;;4.38;79.32;96124.28;4836304;29;20054;-76
2021/03/29 05:05:07;;;;;;;12.88;7.13;;;;;;;4.47;78.54;96123.63;4820514;29;20039;-75
2021/03/29 05:07:32;;;;;;;6.97;6.28;;;;;;;4.72;77.63;96126.16;4832368;29;20027;-76
2021/03/29 05:09:58;;;;;;;15.55;7.68;;;;;;;4.95;77.31;96128.88;4840982;29;20403;-75
2021/03/29 05:12:23;;;;;;;10.48;6.78;;;;;;;4.85;78.23;96136.38;4820028;29;20420;-76
2021/03/29 05:14:50;;;;;;;9.35;7.45;;;;;;;4.90;77.26;96136.06;4851994;29;20034;-76
2021/03/29 05:17:15;;;;;;;8.70;6.65;;;;;;;5.03;77.43;96142.81;4834949;29;20491;-76
2021/03/29 05:19:40;;;;;;;11.43;7.45;;;;;;;5.15;76.84;96146.25;4851124;29;20086;-76
2021/03/29 05:22:06;;;;;;;45.42;10.85;;;;;;;5.43;76.03;96140.81;4835290;29;20041;-75
2021/03/29 05:24:32;;;;;;;18.27;7.40;;;;;;;5.79;74.87;96138.16;4835879;29;20038;-76
2021/03/29 05:26:57;;;;;;;32.47;11.05;;;;;;;6.73;74.10;96135.38;4851688;29;20026;-76
2021/03/29 05:29:28;;;;;;;15.10;12.23;;;;;;;7.59;69.23;96140.56;4819680;29;20025;-77
2021/03/29 05:31:57;;;;;;;12.77;8.02;;;;;;;7.87;69.65;96134.81;4836351;29;20061;-77
2021/03/29 05:34:24;;;;;;;7.88;6.57;;;;;;;8.70;64.28;96133.03;4849842;29;20038;-77
2021/03/29 05:36:49;;;;;;;11.63;7.10;;;;;;;9.31;63.13;96132.94;4851792;29;20030;-77
2021/03/29 05:39:15;;;;;;;9.15;7.22;;;;;;;9.70;60.72;96128.59;4849294;29;20053;-77
2021/03/29 05:41:41;;;;;;;9.55;7.70;;;;;;;9.77;60.42;96127.13;4836016;29;20057;-77
2021/03/29 05:44:07;;;;;;;11.55;8.05;;;;;;;10.55;57.36;96122.53;4835613;29;20032;-77
2021/03/29 05:46:33;;;;;;;9.25;8.43;;;;;;;11.21;55.24;96121.53;4832089;29;20474;-76
2021/03/29 05:49:00;;;;;;;9.68;8.68;;;;;;;11.24;55.33;96126.47;4818006;29;20035;-77
2021/03/29 05:51:26;;;;;;;11.40;8.40;;;;;;;11.05;54.61;96120.41;4814932;29;20035;-76
2021/03/29 05:53:51;;;;;;;10.98;8.45;;;;;;;11.60;54.11;96128.09;4816316;29;20061;-78
2021/03/29 05:56:17;;;;;;;10.23;7.32;;;;;;;11.50;53.97;96132.53;4831764;29;20030;-77
2021/03/29 05:58:55;;;;;;;10.48;8.25;;;;;;;11.19;54.85;96132.06;4832622;29;20095;-76
2021/03/29 06:01:21;;;;;;;10.18;8.00;;;;;;;11.07;55.59;96147.00;4808092;29;20078;-76
2021/03/29 06:03:46;;;;;;;9.88;8.70;;;;;;;9.42;64.35;96149.16;4798569;29;20096;-75
2021/03/29 06:06:11;;;;;;;9.10;7.55;;;;;;;9.40;63.32;96150.25;4819209;29;20045;-76
2021/03/29 06:08:55;;;;;;;8.57;6.97;;;;;;;9.24;62.61;96147.34;4830785;29;20385;-76
2021/03/29 06:11:30;;;;;;;10.15;7.00;;;;;;;9.51;61.62;96153.50;4817845;29;20045;-76
2021/03/29 06:14:13;;;;;;;9.30;7.47;;;;;;;9.00;61.81;96151.09;4831525;29;20416;-76
2021/03/29 06:16:57;;;;;;;9.02;8.07;;;;;;;9.63;61.19;96154.22;4798571;29;20038;-77
2021/03/29 06:19:36;;;;;;;9.38;8.48;;;;;;;9.47;60.97;96141.78;4800864;29;20023;-76
2021/03/29 06:22:35;;;;;;;10.80;7.90;;;;;;;9.42;59.52;96143.16;4815802;29;20070;-77
2021/03/29 06:25:18;;;;;;;15.18;8.60;;;;;;;10.47;54.86;96132.75;4831563;29;20046;-77
2021/03/29 06:27:44;;;;;;;12.20;8.27;;;;;;;15.26;43.67;96120.16;4830223;29;20034;-77
2021/03/29 06:30:33;;;;;;;8.90;6.55;;;;;;;17.45;38.18;96119.91;4817290;29;20484;-76
2021/03/29 06:33:04;;;;;;;7.53;6.10;;;;;;;18.34;35.37;96124.63;4835692;29;20575;-77
2021/03/29 06:35:37;;;;;;;6.43;5.82;;;;;;;17.42;36.22;96116.81;4820466;29;20050;-76
2021/03/29 06:38:12;;;;;;;6.25;5.70;;;;;;;18.85;34.29;96125.22;4820671;29;20042;-77
2021/03/29 06:40:40;;;;;;;8.35;6.43;;;;;;;18.57;35.20;96124.44;4821953;29;20517;-76
2021/03/29 06:43:32;;;;;;;6.47;5.87;;;;;;;17.99;35.65;96122.91;4804086;29;20034;-77
2021/03/29 06:46:24;;;;;;;7.03;5.55;;;;;;;19.64;33.38;96122.22;4820591;29;20125;-77
2021/03/29 06:48:50;;;;;;;7.25;6.40;;;;;;;19.92;32.57;96128.13;4819735;29;20038;-78
2021/03/29 06:51:30;;;;;;;6.70;5.60;;;;;;;20.79;31.76;96125.38;4798864;29;20038;-77
2021/03/29 06:53:56;;;;;;;6.55;5.95;;;;;;;20.99;31.55;96131.41;4820727;29;20038;-77
2021/03/29 06:56:31;;;;;;;11.10;6.20;;;;;;;21.36;30.15;96124.63;4818609;29;20038;-78
2021/03/29 06:59:10;;;;;;;7.13;6.07;;;;;;;21.14;30.73;96126.75;4822893;29;20452;-78
2021/03/29 07:01:37;;;;;;;6.13;5.53;;;;;;;21.24;31.23;96128.94;4828245;29;20421;-77
2021/03/29 07:04:04;;;;;;;7.25;5.07;;;;;;;21.55;29.59;96131.66;4810438;29;20041;-77
2021/03/29 07:06:30;;;;;;;8.43;5.25;;;;;;;21.26;29.80;96130.34;4820162;29;20033;-77
2021/03/29 07:09:04;;;;;;;5.97;4.80;;;;;;;21.01;29.81;96124.94;4832958;29;20037;-76
2021/03/29 07:11:30;;;;;;;6.85;5.63;;;;;;;21.42;30.40;96124.63;4831005;29;20117;-77
2021/03/29 07:13:55;;;;;;;6.18;5.05;;;;;;;21.38;29.29;96133.16;4816834;29;20042;-77
2021/03/29 07:16:21;;;;;;;7.22;4.90;;;;;;;20.55;30.71;96126.78;4825144;29;20034;-78
2021/03/29 07:18:46;;;;;;;8.90;4.65;;;;;;;20.36;29.37;96125.78;4832218;29;20034;-76
2021/03/29 07:21:14;;;;;;;6.60;3.88;;;;;;;20.90;28.23;96127.38;4818267;29;20038;-77
2021/03/29 07:23:39;;;;;;;6.18;4.00;;;;;;;20.99;29.42;96126.97;4803623;29;20034;-79
2021/03/29 07:26:23;;;;;;;4.55;4.10;;;;;;;21.10;29.69;96130.00;4786519;29;20039;-77
2021/03/29 07:28:49;;;;;;;6.38;5.75;;;;;;;22.05;28.57;96130.84;4818655;29;20030;-76
2021/03/29 07:31:40;;;;;;;6.00;5.40;;;;;;;22.29;27.37;96129.25;4816616;29;20042;-76
2021/03/29 07:34:06;;;;;;;14.07;6.68;;;;;;;22.48;28.09;96128.28;4818005;29;20105;-77
2021/03/29 07:36:44;;;;;;;6.03;5.50;;;;;;;22.39;27.38;96131.41;4833133;29;20136;-76
2021/03/29 07:39:11;;;;;;;5.03;4.53;;;;;;;19.15;30.93;96130.25;4832625;29;20081;-77
2021/03/29 07:41:36;;;;;;;7.13;4.00;;;;;;;19.14;31.17;96129.44;4832893;29;20112;-78
2021/03/29 07:44:18;;;;;;;7.40;4.50;;;;;;;19.13;31.04;96130.47;4831713;29;20829;-76
2021/03/29 07:46:48;;;;;;;4.68;3.65;;;;;;;21.78;28.12;96133.78;4833390;29;20027;-78
2021/03/29 07:49:42;;;;;;;6.18;2.83;;;;;;;18.26;30.00;96126.59;4832677;29;20031;-77
2021/03/29 07:52:35;;;;;;;3.80;2.92;;;;;;;17.46;34.01;96124.16;4831042;29;20034;-76
2021/03/29 07:55:19;;;;;;;6.60;4.00;;;;;;;17.04;34.88;96134.50;4814797;29;20057;-76
2021/03/29 07:57:44;;;;;;;5.28;3.78;;;;;;;16.23;36.00;96124.78;4803798;29;20070;-76
2021/03/29 08:00:22;;;;;;;4.13;3.63;;;;;;;15.27;37.47;96119.19;4817424;29;20066;-78
2021/03/29 08:02:47;;;;;;;6.72;4.32;;;;;;;14.18;39.57;96125.97;4817380;29;20050;-77
2021/03/29 08:05:15;;;;;;;5.00;3.50;;;;;;;16.61;34.77;96133.47;4801271;29;20458;-76
2021/03/29 08:07:48;;;;;;;5.20;3.60;;;;;;;15.67;37.50;96120.78;4817699;29;20682;-77
2021/03/29 08:10:15;;;;;;;5.30;4.05;;;;;;;15.23;37.92;96128.34;4785734;29;20036;-77
2021/03/29 08:12:59;;;;;;;4.65;3.70;;;;;;;15.74;36.64;96124.34;4818319;29;20415;-76
2021/03/29 08:15:59;;;;;;;4.95;3.33;;;;;;;16.14;35.74;96131.09;4801802;29;20038;-77
2021/03/29 08:18:24;;;;;;;5.55;4.18;;;;;;;16.56;34.77;96126.16;4816061;29;20078;-77
2021/03/29 08:20:54;;;;;;;4.97;3.70;;;;;;;16.29;35.00;96124.91;4817721;29;20084;-77
2021/03/29 08:23:39;;;;;;;4.97;3.33;;;;;;;16.21;36.19;96122.34;4817191;29;20031;-77
2021/03/29 08:26:23;;;;;;;7.40;3.53;;;;;;;15.19;37.06;96124.44;4818043;29;20471;-77
2021/03/29 08:29:06;;;;;;;4.60;3.08;;;;;;;16.14;35.84;96125.84;4805480;29;20113;-76
2021/03/29 08:32:00;;;;;;;3.17;2.83;;;;;;;16.62;34.62;96120.22;4817483;29;20034;-76
2021/03/29 08:34:29;;;;;;;4.32;3.63;;;;;;;14.85;37.71;96116.09;4819242;29;20034;-76
2021/03/29 08:36:54;;;;;;;6.45;3.00;;;;;;;16.03;35.90;96116.63;4787177;29;20042;-78
2021/03/29 08:39:23;;;;;;;5.47;2.75;;;;;;;16.40;34.05;96115.00;4801624;29;20033;-76
2021/03/29 08:41:51;;;;;;;4.95;2.90;;;;;;;16.25;36.59;96118.38;4802375;29;20098;-77
2021/03/29 08:44:18;;;;;;;4.97;3.30;;;;;;;16.08;35.53;96113.50;4785605;29;20041;-78
2021/03/29 08:46:45;;;;;;;4.18;3.25;;;;;;;15.94;37.29;96111.63;4817934;29;20545;-77
2021/03/29 08:49:10;;;;;;;5.88;3.10;;;;;;;14.42;37.05;96115.53;4800569;29;20125;-75
2021/03/29 08:51:36;;;;;;;3.90;3.00;;;;;;;16.53;34.76;96115.22;4800514;29;20555;-75
2021/03/29 08:54:11;;;;;;;4.43;3.40;;;;;;;15.64;35.62;96108.06;4829046;29;20095;-77
2021/03/29 08:56:40;;;;;;;8.57;4.53;;;;;;;16.48;33.70;96104.47;4822917;29;20034;-77
2021/03/29 08:59:06;;;;;;;5.40;3.15;;;;;;;16.12;35.79;96112.13;4814365;29;20035;-76
2021/03/29 09:01:32;;;;;;;5.25;3.00;;;;;;;15.12;35.97;96098.19;4814829;29;20080;-80
2021/03/29 09:04:05;;;;;;;7.90;3.17;;;;;;;15.38;35.42;96103.13;4832381;29;20030;-78
2021/03/29 09:06:33;;;;;;;4.25;2.70;;;;;;;15.57;35.60;96107.16;4830889;29;20041;-77
2021/03/29 09:09:15;;;;;;;4.10;3.10;;;;;;;14.84;36.29;96099.63;4830464;29;20101;-77
2021/03/29 09:11:42;;;;;;;9.85;3.38;;;;;;;15.21;35.77;96101.59;4832000;29;20129;-79
2021/03/29 09:14:08;;;;;;;4.82;2.97;;;;;;;17.29;33.72;96093.91;4829699;29;20050;-79
2021/03/29 09:16:34;;;;;;;5.82;3.20;;;;;;;16.37;34.74;96097.06;4817827;29;20233;-80
2021/03/29 09:19:19;;;;;;;6.57;3.10;;;;;;;17.03;32.96;96097.03;4830307;29;20394;-81
2021/03/29 09:21:52;;;;;;;6.90;3.17;;;;;;;16.53;35.54;96094.28;4831831;29;20038;-82
2021/03/29 09:24:19;;;;;;;3.75;3.03;;;;;;;16.83;35.28;96094.13;4829162;29;20113;-80
2021/03/29 09:27:07;;;;;;;6.35;3.17;;;;;;;16.79;34.01;96097.31;4831545;29;20038;-79
2021/03/29 09:29:33;;;;;;;7.10;3.10;;;;;;;16.63;34.21;96090.44;4831450;29;20027;-78
2021/03/29 09:32:20;;;;;;;4.35;3.53;;;;;;;17.88;34.19;96089.34;4830343;29;20030;-80
2021/03/29 09:34:46;;;;;;;4.65;2.97;;;;;;;17.02;34.47;96084.91;4832172;29;20039;-78
2021/03/29 09:37:30;;;;;;;4.68;3.22;;;;;;;16.29;34.58;96083.06;4830722;29;20045;-79
2021/03/29 09:40:00;;;;;;;3.95;2.63;;;;;;;16.28;33.64;96067.53;4828840;29;20423;-79
2021/03/29 09:42:43;;;;;;;5.68;3.05;;;;;;;16.42;34.88;96079.03;4798581;29;20039;-80
2021/03/29 09:45:13;;;;;;;3.38;2.72;;;;;;;16.27;35.35;96076.41;4811821;29;20038;-79
2021/03/29 09:47:38;;;;;;;7.03;2.88;;;;;;;17.11;34.81;96076.00;4814058;29;20107;-80
2021/03/29 09:50:06;;;;;;;5.05;2.80;;;;;;;17.82;33.64;96076.97;4811894;29;20043;-80
2021/03/29 09:52:42;;;;;;;3.42;3.13;;;;;;;18.13;32.35;96063.53;4812219;29;20088;-79
2021/03/29 09:55:11;;;;;;;5.38;2.38;;;;;;;18.06;32.03;96065.28;4815127;29;20413;-80
2021/03/29 09:57:38;;;;;;;4.07;2.85;;;;;;;16.29;35.17;96066.56;4830082;29;20442;-78
2021/03/29 10:00:14;;;;;;;3.42;2.95;;;;;;;17.80;32.34;96055.38;4816160;29;20135;-79
2021/03/29 10:02:40;;;;;;;3.50;2.55;;;;;;;15.89;33.57;96059.91;4829884;29;20697;-77
2021/03/29 10:05:10;;;;;;;4.25;3.03;;;;;;;16.86;34.08;96058.94;4831734;29;20049;-77
2021/03/29 10:07:47;;;;;;;5.55;2.97;;;;;;;16.11;34.50;96053.84;4834802;29;20092;-77
2021/03/29 10:10:13;;;;;;;4.97;2.95;;;;;;;16.89;34.49;96052.56;4833263;29;20125;-77
2021/03/29 10:12:38;;;;;;;8.38;2.97;;;;;;;17.55;34.11;96054.09;4834275;29;20117;-77
2021/03/29 10:15:11;;;;;;;5.85;2.90;;;;;;;16.98;33.75;96056.69;4833502;29;20587;-79
2021/03/29 10:17:36;;;;;;;3.47;2.80;;;;;;;16.30;35.68;96060.34;4834975;29;20113;-77
2021/03/29 10:20:10;;;;;;;3.13;2.80;;;;;;;17.14;34.69;96052.06;4830146;29;20090;-77
2021/03/29 10:22:36;;;;;;;5.60;2.97;;;;;;;16.28;35.33;96049.25;4834650;29;20038;-77
2021/03/29 10:25:07;;;;;;;9.93;4.05;;;;;;;16.11;34.10;96045.19;4819237;29;20034;-77
2021/03/29 10:27:46;;;;;;;5.97;3.97;;;;;;;15.79;35.34;96041.03;4833678;29;20034;-81
2021/03/29 10:30:27;;;;;;;3.78;2.95;;;;;;;16.43;35.50;96041.44;4834425;29;20030;-82
2021/03/29 10:32:54;;;;;;;4.85;2.75;;;;;;;15.82;34.51;96032.84;4833203;29;20115;-79
2021/03/29 10:35:20;;;;;;;7.53;2.53;;;;;;;15.87;36.01;96037.53;4834459;29;20027;-80
2021/03/29 10:37:46;;;;;;;5.68;2.50;;;;;;;16.45;35.20;96028.97;4818934;29;20034;-80
2021/03/29 10:40:12;;;;;;;5.85;2.47;;;;;;;16.22;35.19;96032.47;4833775;29;20071;-80
2021/03/29 10:42:40;;;;;;;3.75;2.78;;;;;;;16.03;35.88;96019.09;4833863;29;20499;-76
2021/03/29 10:45:07;;;;;;;4.95;2.40;;;;;;;17.28;33.65;96018.97;4832850;29;20041;-80
2021/03/29 10:47:32;;;;;;;7.68;3.22;;;;;;;16.12;36.29;96016.22;4834877;29;20106;-80
2021/03/29 10:49:58;;;;;;;4.25;2.13;;;;;;;16.69;35.14;96011.25;4817645;29;20561;-79
2021/03/29 10:52:23;;;;;;;4.75;2.40;;;;;;;16.41;35.98;96017.28;4834093;29;20034;-79
2021/03/29 10:54:49;;;;;;;4.60;2.78;;;;;;;16.83;34.49;96005.16;4833095;29;20420;-79
2021/03/29 10:57:15;;;;;;;3.22;2.40;;;;;;;16.86;33.65;96004.78;4834632;29;20397;-79
2021/03/29 10:59:40;;;;;;;3.55;2.58;;;;;;;16.60;35.54;95994.00;4833740;29;20092;-79
2021/03/29 11:02:06;;;;;;;5.43;3.10;;;;;;;16.74;35.03;96003.66;4832581;29;20061;-82
2021/03/29 11:04:31;;;;;;;4.07;2.97;;;;;;;16.38;35.09;95994.06;4833842;29;20042;-79
2021/03/29 11:06:57;;;;;;;4.63;2.95;;;;;;;16.47;35.11;95990.38;4832990;29;20034;-79
2021/03/29 11:09:23;;;;;;;4.22;2.67;;;;;;;16.65;35.89;95975.16;4834198;29;20034;-79
2021/03/29 11:11:49;;;;;;;7.57;2.78;;;;;;;16.72;35.07;95971.63;4832022;29;20070;-79
2021/03/29 11:14:14;;;;;;;6.22;2.60;;;;;;;15.94;34.69;95960.88;4818534;29;20060;-79
2021/03/29 11:16:40;;;;;;;10.57;2.55;;;;;;;15.99;35.59;95973.44;4808351;29;20030;-78
2021/03/29 11:19:05;;;;;;;4.10;2.38;;;;;;;15.87;35.85;95967.00;4832868;29;20139;-79
2021/03/29 11:21:33;;;;;;;3.20;2.70;;;;;;;15.61;35.82;95951.72;4802407;29;20042;-76
2021/03/29 11:23:58;;;;;;;2.60;1.95;;;;;;;15.24;35.21;95950.69;4829034;29;20027;-79
2021/03/29 11:26:24;;;;;;;3.45;2.50;;;;;;;15.86;35.68;95953.09;4817666;29;20516;-79
2021/03/29 11:28:49;;;;;;;2.60;2.40;;;;;;;16.22;35.03;95948.81;4815596;29;20050;-78
2021/03/29 11:31:15;;;;;;;4.78;2.65;;;;;;;16.13;35.79;95949.91;4833366;29;20048;-78
2021/03/29 11:33:40;;;;;;;4.38;2.40;;;;;;;16.02;35.12;95934.66;4816424;29;20405;-79
2021/03/29 11:36:07;;;;;;;3.70;2.60;;;;;;;15.76;35.04;95932.47;4833182;29;20034;-79
2021/03/29 11:38:37;;;;;;;3.22;2.53;;;;;;;16.26;35.96;95934.41;4832700;29;20037;-78
2021/03/29 11:41:02;;;;;;;3.13;2.20;;;;;;;15.78;35.33;95927.06;4815814;29;20493;-80
2021/03/29 11:43:28;;;;;;;4.07;3.35;;;;;;;16.13;36.32;95931.59;4801098;29;20039;-80
2021/03/29 11:45:53;;;;;;;7.47;2.72;;;;;;;15.60;36.18;95924.81;4814108;29;20537;-81
2021/03/29 11:48:19;;;;;;;4.03;2.28;;;;;;;15.93;35.71;95914.00;4830413;29;20092;-80
2021/03/29 11:50:44;;;;;;;6.07;2.85;;;;;;;16.06;35.11;95919.44;4829008;29;20536;-80
2021/03/29 11:53:10;;;;;;;3.53;2.63;;;;;;;16.32;36.67;95919.78;4832650;29;20030;-80
2021/03/29 11:55:35;;;;;;;4.80;2.30;;;;;;;16.28;36.21;95914.09;4816194;29;20034;-80
2021/03/29 11:58:01;;;;;;;5.32;2.58;;;;;;;15.93;36.02;95904.38;4817823;29;20487;-80
2021/03/29 12:00:34;;;;;;;2.60;2.05;;;;;;;15.95;35.06;95905.03;4818127;29;20141;-80
2021/03/29 12:05:59;;;;;;;4.03;2.05;;;;;;;16.06;35.91;95904.56;4800700;29;20145;-81
2021/03/29 12:09:04;;;;;;;3.75;2.30;;;;;;;16.22;35.60;95900.94;4808363;29;20045;-81
2021/03/29 12:14:00;;;;;;;3.05;2.35;;;;;;;16.14;34.54;95896.63;4831065;29;20046;-80
2021/03/29 12:16:27;;;;;;;5.18;2.22;;;;;;;16.15;34.92;95890.41;4813640;29;20035;-78
2021/03/29 12:18:58;;;;;;;5.10;2.20;;;;;;;16.04;33.63;95880.41;4817277;29;20480;-79
2021/03/29 12:21:26;;;;;;;3.58;1.98;;;;;;;16.01;35.59;95872.94;4801728;29;20030;-79
2021/03/29 12:23:52;;;;;;;4.53;2.20;;;;;;;16.44;34.59;95875.69;4801444;29;20046;-79
2021/03/29 12:26:21;;;;;;;3.28;2.20;;;;;;;16.26;35.12;95876.88;4802548;29;20037;-79
2021/03/29 12:28:47;;;;;;;3.37;2.53;;;;;;;15.81;35.21;95870.06;4784820;29;20129;-81
2021/03/29 12:31:15;;;;;;;4.05;2.33;;;;;;;16.11;34.71;95873.47;4802514;29;20042;-80
2021/03/29 12:33:42;;;;;;;2.72;1.90;;;;;;;15.91;35.66;95867.19;4799601;29;20034;-80
2021/03/29 12:36:08;;;;;;;3.35;2.08;;;;;;;16.04;34.94;95867.34;4802136;29;20030;-78
2021/03/29 12:38:34;;;;;;;4.00;1.70;;;;;;;15.61;32.91;95861.13;4786213;29;20117;-79
2021/03/29 12:41:04;;;;;;;3.58;1.70;;;;;;;15.43;33.79;95854.59;4816869;29;20495;-79
2021/03/29 12:46:05;;;;;;;3.08;2.40;;;;;;;15.37;36.09;95856.13;4816295;29;20394;-80
2021/03/29 12:48:32;;;;;;;2.78;2.33;;;;;;;15.76;35.46;95853.31;4799566;29;20098;-79
2021/03/29 12:51:01;;;;;;;4.13;2.38;;;;;;;15.56;35.56;95860.88;4799664;29;20045;-79
2021/03/29 12:53:28;;;;;;;;;;;;;;;15.89;36.46;95855.28;4786784;29;20030;-80
2021/03/29 12:55:55;;;;;;;7.20;1.90;;;;;;;15.13;36.30;95854.53;4829922;29;19924;-80
2021/03/29 12:58:20;;;;;;;4.70;2.00;;;;;;;15.47;35.92;95830.56;4803299;29;20496;-80
2021/03/29 13:00:47;;;;;;;2.33;1.60;;;;;;;15.78;36.33;95827.81;4830390;29;20019;-81
2021/03/29 13:03:13;;;;;;;7.85;2.05;;;;;;;15.70;35.45;95830.53;4783456;29;20026;-78
2021/03/29 13:06:16;;;;;;;8.88;2.10;;;;;;;15.98;35.82;95844.56;4802122;29;20522;-79
2021/03/29 13:08:30;;;;;;;3.22;1.55;;;;;;;15.98;34.65;95838.53;4801346;29;20049;-79
2021/03/29 13:13:30;;;;;;;2.17;1.85;;;;;;;15.91;33.45;95821.94;4802723;29;20046;-79
2021/03/29 13:15:56;;;;;;;3.75;1.50;;;;;;;15.65;33.04;95828.44;4800761;29;20581;-78
2021/03/29 13:18:25;;;;;;;3.00;1.35;;;;;;;14.98;33.36;95825.00;4787115;29;20046;-80
2021/03/29 13:20:50;;;;;;;3.70;1.10;;;;;;;14.77;33.29;95825.63;4800199;29;20034;-80
2021/03/29 13:23:16;;;;;;;2.17;1.50;;;;;;;14.11;36.50;95825.38;4786409;29;20042;-80
2021/03/29 13:25:42;;;;;;;3.85;2.15;;;;;;;14.46;36.52;95829.28;4776619;29;20103;-80
2021/03/29 13:28:07;;;;;;;2.75;1.73;;;;;;;14.74;35.36;95825.16;4819767;29;20030;-79
2021/03/29 13:30:33;;;;;;;2.88;2.42;;;;;;;14.67;35.53;95816.44;4815671;29;20049;-80
2021/03/29 13:33:03;;;;;;;2.38;1.40;;;;;;;14.67;36.03;95819.06;4816303;29;20038;-80
2021/03/29 13:35:28;;;;;;;;;;;;;;;14.73;35.69;95820.97;4801664;29;20529;-79
2021/03/29 13:37:54;;;;;;;4.45;1.70;;;;;;;14.97;35.71;95812.09;4830731;29;20501;-79
2021/03/29 13:40:20;;;;;;;1.80;1.30;;;;;;;14.85;36.86;95816.13;4802389;29;20034;-80
2021/03/29 13:42:46;;;;;;;7.50;1.80;;;;;;;14.89;36.06;95814.81;4804306;29;20049;-79
2021/03/29 13:45:12;;;;;;;20.05;2.15;;;;;;;14.94;36.83;95809.84;4804828;29;20037;-79
2021/03/29 13:47:38;;;;;;;2.67;2.25;;;;;;;14.58;36.35;95814.84;4804187;29;20504;-78
2021/03/29 13:50:04;;;;;;;2.72;1.63;;;;;;;14.72;37.29;95817.53;4788463;29;20042;-79
2021/03/29 13:52:32;;;;;;;2.40;1.55;;;;;;;14.25;36.75;95809.03;4819773;29;20397;-79
2021/03/29 13:54:58;;;;;;;2.15;1.42;;;;;;;14.33;36.85;95808.16;4803455;29;20034;-80
2021/03/29 13:57:24;;;;;;;3.97;1.90;;;;;;;14.63;36.29;95794.31;4789708;29;20026;-80
2021/03/29 13:59:49;;;;;;;2.08;1.50;;;;;;;14.87;36.74;95798.50;4787924;29;20517;-80
2021/03/29 14:02:15;;;;;;;3.40;1.35;;;;;;;14.87;34.79;95801.91;4804581;29;20543;-78
2021/03/29 14:04:42;;;;;;;2.53;1.23;;;;;;;14.94;34.81;95797.63;4803706;29;20038;-78
2021/03/29 14:07:08;;;;;;;4.07;1.60;;;;;;;14.78;34.84;95795.16;4805085;29;20058;-79
2021/03/29 14:09:33;;;;;;;3.20;1.10;;;;;;;14.81;32.90;95789.59;4789295;29;20058;-79
2021/03/29 14:11:59;;;;;;;3.97;1.13;;;;;;;14.04;31.28;95787.97;4805007;29;20039;-80
2021/03/29 14:14:25;;;;;;;2.72;1.10;;;;;;;14.17;32.58;95793.44;4804359;29;20045;-80
2021/03/29 14:16:51;;;;;;;4.95;1.05;;;;;;;14.30;33.57;95785.03;4829557;29;20030;-77
2021/03/29 14:19:18;;;;;;;2.03;1.30;;;;;;;13.99;32.33;95791.09;4835482;29;20041;-77
2021/03/29 14:21:44;;;;;;;3.78;1.52;;;;;;;14.11;33.04;95794.13;4833277;29;20042;-78
2021/03/29 14:24:10;;;;;;;2.10;1.48;;;;;;;13.86;32.64;95790.84;4837170;29;20038;-78
2021/03/29 14:26:36;;;;;;;3.92;1.50;;;;;;;13.77;32.52;95793.66;4837263;29;20029;-78
2021/03/29 14:29:03;;;;;;;3.85;1.02;;;;;;;13.72;34.46;95801.94;4833779;29;20065;-81
2021/03/29 14:31:29;;;;;;;2.63;1.55;;;;;;;13.84;34.00;95797.19;4832234;29;20026;-78
2021/03/29 14:33:54;;;;;;;2.13;1.70;;;;;;;13.76;34.60;95792.81;4831994;29;20042;-80
2021/03/29 14:44:33;;;;;;;1.27;0.70;;;;;;;13.15;32.53;95796.91;4831314;29;20090;-78
2021/03/29 14:46:57;;;;;;;2.33;0.70;;;;;;;13.06;32.38;95803.09;4831257;29;20050;-78
2021/03/29 14:49:24;;;;;;;3.20;0.80;;;;;;;12.92;32.61;95797.72;4834454;29;20042;-79
2021/03/29 14:51:50;;;;;;;2.88;0.90;;;;;;;12.83;33.06;95790.91;4816850;29;20113;-79
2021/03/29 14:54:16;;;;;;;2.55;0.75;;;;;;;12.81;33.21;95790.25;4834234;29;20035;-79
2021/03/29 14:56:41;;;;;;;1.23;0.77;;;;;;;12.93;35.38;95786.34;4817937;29;20038;-80
2021/03/29 14:59:08;;;;;;;4.28;1.20;;;;;;;12.89;35.03;95787.66;4833832;29;20038;-80
2021/03/29 15:01:34;;;;;;;4.68;2.17;;;;;;;13.03;34.59;95794.78;4833521;29;20050;-79
2021/03/29 15:04:01;;;;;;;2.35;1.45;;;;;;;13.01;34.55;95796.72;4833397;29;20134;-80
2021/03/29 15:08:55;;;;;;;3.55;1.00;;;;;;;12.82;35.02;95802.28;4831285;29;20065;-79
2021/03/29 15:11:21;;;;;;;6.68;1.27;;;;;;;12.69;35.89;95806.19;4833904;29;20050;-81
2021/03/29 15:13:46;;;;;;;2.05;0.95;;;;;;;12.63;34.64;95795.63;4817144;29;20034;-80
2021/03/29 15:16:12;;;;;;;1.60;0.98;;;;;;;13.01;36.45;95813.16;4818492;29;20084;-80
2021/03/29 15:18:37;;;;;;;3.97;1.40;;;;;;;12.95;35.99;95816.41;4832737;29;20034;-80
2021/03/29 15:21:03;;;;;;;3.38;1.38;;;;;;;12.79;34.32;95803.41;4833801;29;20027;-78
2021/03/29 15:23:29;;;;;;;2.95;1.20;;;;;;;12.94;34.79;95809.56;4833270;29;20122;-80
2021/03/29 15:25:55;;;;;;;4.18;1.33;;;;;;;12.91;34.01;95806.47;4832543;29;20042;-80
2021/03/29 15:28:21;;;;;;;1.98;1.00;;;;;;;12.97;35.69;95817.03;4833166;29;20046;-80
2021/03/29 15:30:48;;;;;;;4.80;1.20;;;;;;;12.92;34.93;95815.91;4817156;29;20035;-81
2021/03/29 15:33:13;;;;;;;3.47;1.35;;;;;;;12.82;35.69;95817.88;4833745;29;20031;-80
2021/03/29 15:35:39;;;;;;;1.98;0.75;;;;;;;12.72;36.78;95814.63;4816936;29;20037;-79
2021/03/29 15:38:05;;;;;;;5.43;1.38;;;;;;;12.66;35.86;95821.28;4833935;29;20042;-78
2021/03/29 15:40:31;;;;;;;2.50;1.50;;;;;;;12.74;36.53;95831.69;4831545;29;20033;-79
2021/03/29 15:42:56;;;;;;;3.03;1.70;;;;;;;12.48;36.66;95834.44;4814781;29;20034;-78
2021/03/29 15:45:22;;;;;;;1.75;1.25;;;;;;;12.36;37.25;95829.69;4831275;29;20121;-79
2021/03/29 15:47:47;;;;;;;2.63;1.10;;;;;;;12.27;38.61;95822.84;4831276;29;20121;-78
2021/03/29 15:50:13;;;;;;;3.47;1.40;;;;;;;12.19;38.17;95835.81;4832914;29;20034;-80
2021/03/29 15:52:39;;;;;;;4.38;1.67;;;;;;;12.21;37.89;95834.69;4832530;29;20069;-79
2021/03/29 15:55:05;;;;;;;2.30;1.55;;;;;;;12.10;38.22;95835.78;4808810;29;20111;-79
2021/03/29 15:57:39;;;;;;;2.33;1.20;;;;;;;11.94;39.15;95833.16;4815436;29;20038;-78
2021/03/29 16:00:16;;;;;;;2.95;1.52;;;;;;;11.90;39.70;95850.03;4825445;29;20035;-79
2021/03/29 16:02:50;;;;;;;3.40;1.63;;;;;;;11.99;41.06;95846.47;4832765;29;20067;-79
2021/03/29 16:05:16;;;;;;;2.10;1.25;;;;;;;11.76;38.74;95845.41;4830100;29;20111;-79
2021/03/29 16:07:41;;;;;;;2.78;1.27;;;;;;;11.61;39.78;95844.34;4833512;29;20038;-79
2021/03/29 16:10:07;;;;;;;1.35;0.88;;;;;;;11.52;40.10;95851.28;4830978;29;20022;-79
2021/03/29 16:12:33;;;;;;;1.95;1.15;;;;;;;11.39;39.89;95842.28;4833286;29;20514;-79
2021/03/29 16:14:59;;;;;;;3.45;1.17;;;;;;;11.39;40.01;95847.47;4832441;29;20035;-78
2021/03/29 16:17:25;;;;;;;2.22;1.02;;;;;;;11.16;40.47;95843.75;4824334;29;20041;-79
2021/03/29 16:19:50;;;;;;;3.10;1.35;;;;;;;11.10;40.62;95852.94;4832166;29;20030;-78
2021/03/29 16:22:16;;;;;;;3.85;1.10;;;;;;;11.10;40.83;95847.75;4831137;29;20521;-79
2021/03/29 16:24:44;;;;;;;2.30;1.00;;;;;;;11.01;40.97;95856.44;4832807;29;20111;-79
2021/03/29 16:27:11;;;;;;;2.30;1.00;;;;;;;10.93;41.38;95853.78;4830772;29;20436;-79
2021/03/29 16:29:37;;;;;;;2.17;1.10;;;;;;;10.75;41.80;95848.63;4823446;29;20452;-78
2021/03/29 16:32:04;;;;;;;2.72;1.42;;;;;;;10.59;42.06;95851.88;4816809;29;20038;-78
2021/03/29 16:34:30;;;;;;;2.55;1.10;;;;;;;10.58;42.21;95871.00;4828290;29;20118;-78
2021/03/29 16:36:55;;;;;;;1.08;0.60;;;;;;;10.47;42.77;95855.66;4832184;29;20070;-78
2021/03/29 16:39:20;;;;;;;2.92;1.20;;;;;;;10.50;42.29;95864.91;4831139;29;20505;-78
2021/03/29 16:41:46;;;;;;;3.22;1.10;;;;;;;10.44;42.73;95858.53;4832604;29;20477;-78
2021/03/29 16:44:11;;;;;;;2.30;1.13;;;;;;;10.48;42.54;95872.00;4830343;29;20287;-78
2021/03/29 16:46:37;;;;;;;1.98;1.10;;;;;;;10.36;43.14;95868.84;4818356;29;20030;-78
2021/03/29 16:49:02;;;;;;;3.20;1.17;;;;;;;10.25;43.57;95856.09;4813015;29;20429;-78
2021/03/29 16:51:28;;;;;;;1.98;0.93;;;;;;;10.30;43.90;95866.00;4813662;29;20500;-78
2021/03/29 16:53:53;;;;;;;4.10;1.13;;;;;;;10.20;44.58;95863.47;4813436;29;20489;-78
2021/03/29 16:56:19;;;;;;;4.97;1.02;;;;;;;10.07;44.54;95856.03;4813948;29;20039;-78
2021/03/29 16:58:44;;;;;;;5.65;1.25;;;;;;;10.10;44.38;95870.47;4814228;29;20050;-79
2021/03/29 17:01:10;;;;;;;5.53;1.10;;;;;;;10.00;44.43;95864.50;4812333;29;20047;-79
2021/03/29 17:03:35;;;;;;;2.92;1.00;;;;;;;9.96;44.54;95873.50;4813868;29;20051;-79
2021/03/29 17:06:01;;;;;;;1.17;0.70;;;;;;;9.85;44.73;95879.72;4812880;29;20038;-78